• Join FlightAware (Why Join?)
  • Login
  • US Flag 
07:59AM EST


 

Airport Tracker/Info


-or-


 

Live Flight TrackerFlight Track Log ✈ UAL4295 ✈ 11-Apr-2013 ✈ KEWR - KMCI

Flight Track Log - Related Links

Times and Time Zones

All times are in EDT time to prevent confusion due to time zone crossing. See the UAL4295 flight status page for this flight to view local times or setup timezone preferences in your user account.

Time Position Orientation Groundspeed Altitude Reporting Facility
EDT Latitude Longitude Course Direction KTS MPH feet Rate Location/Type
07:57PM 40.7500 -74.1333 294° West 206 237 2,600  Level New York TRACON
07:58PM 40.7833 -74.2333 294° West 266 306 5,100 2,520 Climbing New York TRACON
07:59PM 40.8000 -74.3167 285° West 251 289 8,000 1,980 Climbing New York TRACON
08:00PM 40.7464 -74.6602 277° West  Level FlightAware Approximate
08:01PM 40.7569 -74.7884 276° West  Level FlightAware Approximate
08:02PM 40.7667 -74.9167 294° West  Level FlightAware Approximate
08:02PM 40.8089 -74.5656 273° West 285 328 12,100  Level New York Center
08:03PM 40.8078 -74.6694 269° West 316 364 13,900 1,800 Climbing New York Center
08:04PM 40.8075 -74.7983 270° West 322 371 15,700 1,560 Climbing New York Center
08:05PM 40.8056 -74.9161 269° West 327 376 17,000 1,140 Climbing New York Center
08:06PM 40.7864 -75.0411 259° West 332 382 18,000 1,380 Climbing New York Center
08:07PM 40.7533 -75.1458 247° West 332 382 19,800 1,620 Climbing New York Center
08:08PM 40.7200 -75.2614 249° West 337 388 21,300 1,500 Climbing New York Center
08:09PM 40.6886 -75.3717 249° West 337 388 22,900 1,560 Climbing New York Center
08:10PM 40.6550 -75.4814 248° West 330 380 24,500 1,500 Climbing New York Center
08:11PM 40.6236 -75.5889 249° West 325 374 25,900 1,380 Climbing New York Center
08:12PM 40.5900 -75.6983 248° West 325 374 27,400 1,320 Climbing New York Center
08:13PM 40.5583 -75.8056 249° West 325 374 28,600 1,260 Climbing New York Center
08:14PM 40.5247 -75.9122 248° West 325 374 29,900 1,200 Climbing New York Center
08:15PM 40.4892 -76.0106 245° Southwest 325 374 31,100 1,080 Climbing New York Center
08:16PM 40.4594 -76.1147 249° West 325 374 32,200 1,200 Climbing New York Center
08:17PM 40.4275 -76.2186 248° West 320 368 33,500 1,080 Climbing New York Center
08:18PM 40.3958 -76.3197 248° West 310 357 34,400 840 Climbing New York Center
08:19PM 40.3639 -76.4206 247° West 304 350 35,200 660 Climbing New York Center
08:20PM 40.3319 -76.5189 247° West 304 350 35,800 360 Climbing New York Center
08:21PM 40.2917 -76.6189 242° Southwest 309 356 36,000 60 Climbing New York Center
08:22PM 40.2489 -76.7214 241° Southwest 316 364 36,000  Level New York Center
08:23PM 40.2325 -76.8422 260° West 323 372 36,000  Level New York Center
08:24PM 40.2297 -76.9753 268° West 346 398 36,000  Level New York Center
08:25PM 40.2247 -77.1108 267° West 360 414 36,000  Level New York Center
08:26PM 40.2194 -77.2464 267° West 375 432 36,000  Level New York Center
08:28PM 40.2103 -77.5489 268° West 394 453 36,000  Level Cleveland Center
08:29PM 40.2056 -77.6933 268° West 399 459 36,000  Level Cleveland Center
08:30PM 40.2092 -77.8372 272° West 399 459 36,000  Level Cleveland Center
08:31PM 40.2103 -77.9758 271° West 399 459 36,000  Level Cleveland Center
08:32PM 40.2114 -78.1200 271° West 399 459 36,000  Level Cleveland Center
08:33PM 40.2144 -78.2639 272° West 399 459 36,000  Level Cleveland Center
08:34PM 40.2172 -78.4078 271° West 399 459 36,000  Level Cleveland Center
08:35PM 40.2178 -78.5494 270° West 399 459 36,000  Level Cleveland Center
08:36PM 40.2183 -78.6906 270° West 394 453 36,000  Level Cleveland Center
08:37PM 40.2225 -78.8319 272° West 394 453 36,000  Level Cleveland Center
08:38PM 40.2225 -78.9733 270° West 394 453 36,000  Level Cleveland Center
08:39PM 40.2244 -79.1147 271° West 394 453 36,000  Level Cleveland Center
08:40PM 40.2242 -79.2561 270° West 394 453 36,000  Level Cleveland Center
08:41PM 40.2300 -79.4164 273° West 399 459 36,000  Level Cleveland Center
08:42PM 40.2314 -79.5606 271° West 399 459 36,000  Level Cleveland Center
08:43PM 40.2306 -79.7047 270° West 399 459 36,000  Level Cleveland Center
08:44PM 40.2317 -79.8489 271° West 399 459 36,000  Level Cleveland Center
08:45PM 40.2325 -79.9931 270° West 399 459 36,000  Level Cleveland Center
08:46PM 40.2311 -80.1369 269° West 403 464 36,000  Level Cleveland Center
08:47PM 40.2314 -80.2839 270° West 398 458 36,000  Level Cleveland Center
08:48PM 40.2317 -80.4281 270° West 403 464 36,000  Level Cleveland Center
08:49PM 40.2319 -80.5722 270° West 403 464 36,000  Level Cleveland Center
08:50PM 40.2317 -80.7164 270° West 403 464 36,000  Level Cleveland Center
08:51PM 40.2314 -80.8578 270° West 403 464 36,000  Level Cleveland Center
08:52PM 40.2311 -80.9692 270° West 403 464 36,000  Level Cleveland Center
08:53PM 40.2283 -81.1269 269° West 403 464 36,000  Level Cleveland Center
08:54PM 40.2236 -81.3819 269° West 393 452 36,000  Level Indianapolis Center
08:55PM 40.2225 -81.5292 269° West 399 459 36,000  Level Indianapolis Center
08:56PM 40.2206 -81.6758 269° West 399 459 36,000  Level Indianapolis Center
08:57PM 40.2186 -81.8272 269° West 398 458 36,000  Level Indianapolis Center
08:58PM 40.2164 -81.9692 269° West 390 449 36,000  Level Indianapolis Center
08:59PM 40.2144 -82.1117 269° West 389 448 36,000  Level Indianapolis Center
09:00PM 40.2119 -82.2556 269° West 392 451 36,000  Level Indianapolis Center
09:02PM 40.2092 -82.3981 269° West 390 449 36,000  Level Indianapolis Center
09:03PM 40.2056 -82.5322 268° West  Level FlightAware Approximate
09:03PM 40.2064 -82.5408 268° West 390 449 36,000  Level Indianapolis Center
09:04PM 40.2042 -82.6833 269° West 389 448 36,000  Level Indianapolis Center
09:05PM 40.1997 -82.8247 268° West 387 445 36,000  Level Indianapolis Center
09:06PM 40.1972 -82.9653 269° West 386 444 36,000  Level Indianapolis Center
09:07PM 40.1936 -83.1289 268° West 384 442 36,000  Level Indianapolis Center
09:08PM 40.1903 -83.2675 268° West 382 440 36,000  Level Indianapolis Center
09:09PM 40.1858 -83.4053 268° West 380 437 36,000  Level Indianapolis Center
09:10PM 40.1819 -83.5425 268° West 379 436 36,000  Level Indianapolis Center
09:11PM 40.1775 -83.6792 268° West 377 434 36,000  Level Indianapolis Center
09:12PM 40.1736 -83.8156 268° West 376 433 36,000  Level Indianapolis Center
09:13PM 40.1694 -83.9531 268° West 377 434 36,000  Level Indianapolis Center
09:14PM 40.1642 -84.0903 267° West 376 433 36,000  Level Indianapolis Center
09:15PM 40.1592 -84.2506 268° West 378 435 36,000  Level Indianapolis Center
09:16PM 40.1539 -84.3908 267° West 383 441 36,000  Level Indianapolis Center
09:17PM 40.1489 -84.5297 267° West 382 440 36,000  Level Indianapolis Center
09:18PM 40.1436 -84.6697 267° West 383 441 36,000  Level Indianapolis Center
09:19PM 40.1389 -84.8081 267° West 380 437 36,000  Level Indianapolis Center
09:20PM 40.1322 -84.9456 266° West 376 433 36,000  Level Indianapolis Center
09:22PM 40.1222 -85.1772 267° West 378 435 36,000  Level Indianapolis Center
09:23PM 40.1150 -85.3158 266° West 380 437 36,000  Level Indianapolis Center
09:24PM 40.1097 -85.4544 267° West 380 437 36,000  Level Indianapolis Center
09:25PM 40.1025 -85.5939 266° West 382 440 36,000  Level Indianapolis Center
09:26PM 40.0969 -85.7322 267° West 379 436 36,000  Level Indianapolis Center
09:27PM 40.0897 -85.8694 266° West 376 433 36,000  Level Indianapolis Center
09:28PM 40.0836 -86.0019 267° West 377 434 36,000  Level Indianapolis Center
09:29PM 40.0756 -86.1656 266° West 377 434 36,000  Level Indianapolis Center
09:29PM 40.0717 -86.2247 265° West 378 435 36,000  Level Chicago Center
09:30PM 40.0642 -86.3617 266° West 378 435 36,000  Level Chicago Center
09:31PM 40.0600 -86.4414 266° West 381 438 36,000  Level Indianapolis Center
09:32PM 40.0531 -86.5792 266° West 381 438 36,000  Level Indianapolis Center
09:33PM 40.0456 -86.7175 266° West 382 440 36,000  Level Indianapolis Center
09:34PM 40.0364 -86.8561 265° West 383 441 36,000  Level Indianapolis Center
09:36PM 40.0250 -87.0789 266° West 382 440 36,000  Level Chicago Center
09:37PM 40.0161 -87.2175 265° West 384 442 36,000  Level Chicago Center
09:38PM 40.0081 -87.3583 266° West 387 445 36,000  Level Chicago Center
09:38PM 40.0008 -87.4439 264° West 390 449 36,000  Level Indianapolis Center
09:39PM 39.9903 -87.6147 265° West 392 451 36,000  Level Indianapolis Center
09:40PM 39.9817 -87.7581 266° West 395 455 36,000  Level Indianapolis Center
09:41PM 39.9733 -87.8994 266° West 393 452 36,000  Level Indianapolis Center
09:42PM 39.9692 -87.9483 264° West 400 460 36,000  Level Chicago Center
09:43PM 39.9594 -88.0922 265° West 400 460 36,000  Level Chicago Center
09:44PM 39.9497 -88.2375 265° West 400 460 36,000  Level Chicago Center
09:45PM 39.9372 -88.4125 265° West 404 465 36,000  Level Chicago Center
09:45PM 39.9322 -88.4706 264° West 403 464 36,000  Level Kansas City Center
09:46PM 39.9217 -88.6178 265° West 406 467 36,000  Level Kansas City Center
09:47PM 39.9114 -88.7614 265° West 401 461 36,000  Level Kansas City Center
09:48PM 39.9008 -88.8981 264° West 386 444 36,000  Level Kansas City Center
09:49PM 39.8906 -89.0344 264° West 380 437 36,000  Level Kansas City Center
09:50PM 39.8797 -89.1747 264° West 386 444 36,000  Level Kansas City Center
09:51PM 39.8686 -89.3161 264° West 390 449 36,000  Level Kansas City Center
09:52PM 39.8564 -89.4603 264° West 396 456 36,000  Level Kansas City Center
09:53PM 39.8450 -89.6039 264° West 398 458 36,000  Level Kansas City Center
09:54PM 39.8408 -89.7844 268° West 411 473 36,000  Level Kansas City Center
09:55PM 39.8425 -89.9392 271° West 422 486 36,000  Level Kansas City Center
09:57PM 39.8436 -90.0925 271° West 423 487 36,000  Level Kansas City Center
09:58PM 39.8453 -90.2458 271° West 423 487 36,000  Level Kansas City Center
09:59PM 39.8464 -90.3989 271° West 423 487 36,000  Level Kansas City Center
10:00PM 39.8461 -90.5506 270° West 421 484 36,000  Level Kansas City Center
10:01PM 39.8478 -90.7028 271° West 420 483 36,000  Level Kansas City Center
10:02PM 39.8469 -90.8536 270° West 418 481 36,000  Level Kansas City Center
10:03PM 39.8481 -91.0144 271° West 415 478 36,000  Level Kansas City Center
10:04PM 39.8478 -91.1647 270° West 415 478 36,000  Level Kansas City Center
10:05PM 39.8469 -91.3128 270° West 413 475 36,000  Level Kansas City Center
10:06PM 39.8331 -91.4575 263° West 405 466 36,000  Level Kansas City Center
10:07PM 39.8236 -91.5981 265° West 398 458 36,000  Level Kansas City Center
10:08PM 39.8117 -91.7697 265° West 398 458 36,000  Level Kansas City Center
10:09PM 39.8008 -91.9108 264° West 394 453 36,000  Level Kansas City Center
10:10PM 39.7897 -92.0533 264° West 395 455 36,000  Level Kansas City Center
10:11PM 39.7783 -92.1989 264° West 402 463 36,000 -480 Level Kansas City Center
10:12PM 39.7664 -92.3439 264° West 403 464 35,100 -1,440 Descending Kansas City Center
10:13PM 39.7550 -92.4869 264° West 400 460 33,100 -2,040 Descending Kansas City Center
10:14PM 39.7425 -92.6294 264° West 400 460 31,100 -2,100 Descending Kansas City Center
10:15PM 39.7306 -92.7711 264° West 395 455 28,800 -2,280 Descending Kansas City Center
10:16PM 39.7181 -92.9169 264° West 401 461 26,400 -2,220 Descending Kansas City Center
10:17PM 39.7047 -93.0592 263° West 401 461 24,400 -1,680 Descending Kansas City Center
10:18PM 39.6908 -93.2250 264° West 391 450 23,100 -1,920 Descending Kansas City Center
10:19PM 39.6778 -93.3581 263° West 379 436 20,500 -2,400 Descending Kansas City Center
10:20PM 39.6667 -93.4875 264° West 369 425 18,200 -2,280 Descending Kansas City Center
10:21PM 39.6561 -93.6128 264° West 356 410 16,000 -2,220 Descending Kansas City Center
10:22PM 39.6433 -93.7442 263° West 332 382 13,800 -1,920 Descending Kansas City Center
10:23PM 39.6331 -93.8511 263° West 313 360 12,100 -1,440 Descending Kansas City Center
10:24PM 39.5992 -93.9356 243° Southwest 278 320 10,900 -1,200 Descending Kansas City Center
10:25PM 39.5525 -94.0203 234° Southwest 260 299 9,600 -1,260 Descending Kansas City Center
10:26PM 39.5042 -94.0856 226° Southwest 259 298 8,300 -1,380 Descending Kansas City Center
10:27PM 39.4522 -94.1622 229° Southwest 254 292 6,800 -1,200 Descending Kansas City Center
10:28PM 39.4089 -94.2294 230° Southwest 253 291 5,900 -900 Descending Kansas City Center
10:29PM 39.3778 -94.2994 240° Southwest 237 273 5,000 -960 Descending Kansas City Center
10:30PM 39.3389 -94.3831 239° Southwest 240 276 4,000 -660 Descending Kansas City Center
10:31PM 39.3075 -94.4481 238° Southwest 226 260 3,700 -540 Descending Kansas City Center
10:32PM 39.2769 -94.5175 240° Southwest 200 230 3,000 -420 Descending Kansas City Center
10:33PM 39.2778 -94.5731 271° West 165 190 2,900 -420 Descending Kansas City Center
10:34PM 39.2817 -94.6181 276° West 135 155 2,200 -720 Descending Kansas City Center